Terminal Aerodrome Forecast
Issued by NWS Northern Indiana

Home | Current Version | Previous Version | Graphics & Text | Print | Product List | Glossary On
Versions: 1 2 3 4 5 6 7 8 9 10 11 12 13 14 15 16 17 18 19 20 21 22
000
FTUS43 KIWX 250237 AAA
TAFFWA
TAF AMD
KFWA 250237Z 2503/2524 01012KT P6SM -SHRA OVC008
     FM251000 36006KT P6SM VCSH OVC008
     FM251700 32010KT P6SM VCSH OVC010
     FM251800 32010KT P6SM OVC010
     FM252300 31010KT P6SM BKN020=

USA.gov is the U.S. government's official web portal to all federal, state and local government web resources and services.